createdAt,value
2022-11-29T00:01:18.508Z,664.22
2022-11-29T00:03:45.457Z,573.95
2022-11-29T00:06:32.459Z,742.70
2022-11-29T00:09:01.860Z,820.03
2022-11-29T00:11:51.203Z,657.72
2022-11-29T00:14:19.409Z,552.10
2022-11-29T00:16:51.659Z,643.25
2022-11-29T00:19:18.937Z,763.47
2022-11-29T00:21:46.093Z,737.45
2022-11-29T00:24:13.516Z,581.80
2022-11-29T00:26:40.372Z,677.25
2022-11-29T00:29:07.319Z,633.28
2022-11-29T00:31:34.688Z,669.17
2022-11-29T00:34:04.001Z,579.63
2022-11-29T00:36:30.954Z,705.45
2022-11-29T00:38:58.730Z,518.25
2022-11-29T00:41:26.561Z,584.00
2022-11-29T00:43:53.751Z,597.60
2022-11-29T00:46:20.678Z,601.65
2022-11-29T00:48:47.559Z,580.70
2022-11-29T00:51:14.438Z,594.55
2022-11-29T00:53:41.275Z,759.70
2022-11-29T00:56:08.512Z,873.20
2022-11-29T00:58:37.146Z,655.08
2022-11-29T01:01:05.234Z,542.85
2022-11-29T01:03:32.500Z,643.95
2022-11-29T01:06:08.677Z,661.45
2022-11-29T01:08:36.528Z,584.42
2022-11-29T01:11:04.347Z,516.38
2022-11-29T01:13:31.322Z,542.80
2022-11-29T01:15:58.577Z,475.02
2022-11-29T01:18:26.223Z,601.65
2022-11-29T01:21:10.919Z,554.92
2022-11-29T01:23:38.571Z,555.78
2022-11-29T01:26:08.721Z,466.92
2022-11-29T01:28:36.561Z,310.80
2022-11-29T01:31:12.621Z,350.17
2022-11-29T01:33:39.567Z,457.67
2022-11-29T01:36:08.250Z,326.95
2022-11-29T01:38:36.236Z,420.92
2022-11-29T01:41:07.494Z,302.88
2022-11-29T01:43:53.055Z,325.23
2022-11-29T01:46:19.915Z,492.80
2022-11-29T01:48:47.998Z,327.13
2022-11-29T01:51:15.519Z,333.52
2022-11-29T01:53:42.386Z,258.08
2022-11-29T01:56:10.439Z,139.93
2022-11-29T01:58:37.603Z,277.20
2022-11-29T02:01:42.390Z,317.20
2022-11-29T02:04:09.859Z,416.08
2022-11-29T02:06:37.433Z,492.58
2022-11-29T02:09:04.623Z,489.33
2022-11-29T02:11:51.575Z,464.10
2022-11-29T02:14:56.068Z,524.47
2022-11-29T02:17:47.673Z,573.38
2022-11-29T02:20:48.583Z,539.20
2022-11-29T02:23:28.648Z,670.25
2022-11-29T02:26:32.953Z,558.15
2022-11-29T02:29:27.865Z,616.17
2022-11-29T02:32:15.480Z,484.65
2022-11-29T02:35:00.650Z,499.38
2022-11-29T02:37:30.552Z,447.20
2022-11-29T02:40:09.772Z,416.23
2022-11-29T02:42:57.836Z,487.08
2022-11-29T02:45:46.491Z,465.20
2022-11-29T02:48:32.165Z,385.58
2022-11-29T02:51:17.628Z,357.63
2022-11-29T02:53:58.620Z,370.80
2022-11-29T02:56:56.729Z,413.60
2022-11-29T02:59:55.556Z,387.80
2022-11-29T03:02:31.282Z,525.00
2022-11-29T03:05:21.781Z,455.65
2022-11-29T03:07:57.636Z,438.77
2022-11-29T03:10:42.291Z,454.08
2022-11-29T03:13:25.138Z,507.50
2022-11-29T03:16:11.646Z,586.13
2022-11-29T03:19:05.805Z,749.95
2022-11-29T03:21:47.133Z,733.03
2022-11-29T03:24:35.515Z,594.58
2022-11-29T03:27:15.967Z,561.08
2022-11-29T03:29:59.126Z,662.50
2022-11-29T03:32:38.615Z,594.40
2022-11-29T03:35:27.144Z,722.92
2022-11-29T03:38:21.145Z,573.67
2022-11-29T03:41:34.138Z,554.65
2022-11-29T03:44:15.844Z,564.88
2022-11-29T03:46:52.659Z,514.37
2022-11-29T03:49:26.627Z,640.93
2022-11-29T03:52:06.120Z,574.60
2022-11-29T03:54:58.171Z,637.97
2022-11-29T03:57:48.626Z,583.33
2022-11-29T04:00:16.729Z,541.40
2022-11-29T04:03:20.286Z,498.77
2022-11-29T04:05:55.835Z,625.35
2022-11-29T04:08:41.374Z,651.30
2022-11-29T04:11:54.722Z,531.38
2022-11-29T04:14:30.979Z,595.47
2022-11-29T04:17:19.048Z,648.58
2022-11-29T04:19:48.975Z,612.38
2022-11-29T04:22:32.763Z,595.22
2022-11-29T04:25:18.130Z,538.38
2022-11-29T04:28:00.393Z,609.20
2022-11-29T04:30:28.033Z,595.53
2022-11-29T04:33:26.796Z,564.28
2022-11-29T04:36:27.775Z,745.53
2022-11-29T04:39:05.331Z,750.90
2022-11-29T04:41:44.309Z,575.30
2022-11-29T04:44:26.400Z,668.30
2022-11-29T04:47:14.318Z,725.80
2022-11-29T04:49:59.523Z,703.67
2022-11-29T04:52:41.297Z,726.80
2022-11-29T04:55:45.934Z,614.08
2022-11-29T04:58:33.104Z,659.63
2022-11-29T05:01:04.266Z,708.35
2022-11-29T05:03:46.929Z,904.95
2022-11-29T05:06:19.065Z,752.30
2022-11-29T05:09:10.640Z,642.40
2022-11-29T05:11:43.232Z,730.83
2022-11-29T05:14:47.770Z,684.28
2022-11-29T05:17:49.031Z,632.70
2022-11-29T05:20:36.331Z,651.85
2022-11-29T05:23:29.389Z,769.47
2022-11-29T05:26:09.215Z,697.33
2022-11-29T05:29:10.979Z,681.33
2022-11-29T05:31:56.570Z,742.78
2022-11-29T05:34:35.243Z,651.38
2022-11-29T05:37:28.240Z,676.28
2022-11-29T05:39:57.926Z,737.38
2022-11-29T05:42:33.747Z,661.05
2022-11-29T05:45:17.130Z,763.85
2022-11-29T05:48:03.520Z,623.53
2022-11-29T05:50:51.089Z,646.92
2022-11-29T05:53:35.745Z,627.72
2022-11-29T05:56:23.632Z,591.53
2022-11-29T05:59:00.743Z,609.37
2022-11-29T06:01:39.863Z,638.08
2022-11-29T06:04:14.746Z,653.33
2022-11-29T06:06:55.286Z,604.87
2022-11-29T06:09:34.111Z,585.60
2022-11-29T06:12:14.860Z,528.40
2022-11-29T06:15:01.940Z,590.15
2022-11-29T06:18:16.873Z,619.90
2022-11-29T06:21:05.150Z,619.47
2022-11-29T06:24:05.180Z,558.40
2022-11-29T06:27:05.416Z,548.13
2022-11-29T06:29:33.229Z,524.85
2022-11-29T06:32:40.816Z,505.48
2022-11-29T06:35:29.408Z,521.88
2022-11-29T06:37:58.443Z,523.95
2022-11-29T06:40:25.876Z,517.63
2022-11-29T06:42:52.688Z,507.98
2022-11-29T06:45:21.756Z,550.13
2022-11-29T06:48:06.448Z,535.92
2022-11-29T06:51:03.225Z,519.17
2022-11-29T06:53:48.502Z,501.73
2022-11-29T06:56:21.196Z,503.30
2022-11-29T06:59:00.274Z,501.30
2022-11-29T07:01:47.899Z,501.00
2022-11-29T07:04:23.421Z,505.15
2022-11-29T07:06:50.563Z,437.70
2022-11-29T07:09:20.318Z,478.80
2022-11-29T07:11:48.008Z,500.38
2022-11-29T07:14:15.385Z,420.13
2022-11-29T07:17:15.577Z,480.15
2022-11-29T07:20:01.292Z,426.30
2022-11-29T07:23:05.661Z,472.27
2022-11-29T07:25:51.391Z,439.03
2022-11-29T07:28:46.549Z,497.50
2022-11-29T07:31:32.103Z,485.27
2022-11-29T07:34:13.462Z,509.00
2022-11-29T07:36:45.217Z,474.52
2022-11-29T07:39:35.795Z,487.83
2022-11-29T07:42:40.478Z,488.65
2022-11-29T07:45:28.344Z,446.55
2022-11-29T07:47:55.300Z,393.92
2022-11-29T07:50:22.495Z,434.45
2022-11-29T07:52:49.854Z,410.38
2022-11-29T07:55:19.322Z,385.58
2022-11-29T07:57:46.935Z,383.77
2022-11-29T08:00:14.586Z,379.73
2022-11-29T08:02:42.106Z,353.52
2022-11-29T08:05:29.832Z,298.00
2022-11-29T08:07:56.944Z,282.88
2022-11-29T08:10:23.897Z,288.65
2022-11-29T08:12:52.118Z,297.95
2022-11-29T08:15:20.878Z,253.20
2022-11-29T08:17:48.316Z,268.08
2022-11-29T08:20:16.761Z,303.58
2022-11-29T08:22:43.693Z,348.30
2022-11-29T08:25:11.705Z,311.77
2022-11-29T08:27:39.127Z,286.92
2022-11-29T08:30:07.272Z,410.58
2022-11-29T08:32:34.649Z,373.83
2022-11-29T08:35:01.554Z,370.10
2022-11-29T08:37:28.471Z,287.40
2022-11-29T08:39:56.130Z,305.02
2022-11-29T08:42:22.946Z,322.02
2022-11-29T08:44:49.831Z,308.73
2022-11-29T08:47:35.167Z,283.27
2022-11-29T08:50:17.859Z,229.40
2022-11-29T08:53:05.848Z,357.75
2022-11-29T08:55:43.149Z,350.27
2022-11-29T08:58:13.400Z,197.45
2022-11-29T09:00:42.724Z,280.35
2022-11-29T09:03:28.231Z,252.88
2022-11-29T09:05:55.299Z,276.77
2022-11-29T09:08:22.178Z,231.10
2022-11-29T09:10:49.568Z,169.48
2022-11-29T09:13:18.163Z,160.80
2022-11-29T09:15:45.239Z,147.50
2022-11-29T09:18:12.272Z,159.55
2022-11-29T09:20:43.366Z,152.07
2022-11-29T09:23:10.756Z,103.40
2022-11-29T09:25:37.604Z,98.63
2022-11-29T09:28:04.678Z,73.97
2022-11-29T09:30:31.975Z,92.95
2022-11-29T09:33:05.363Z,117.50
2022-11-29T09:35:33.223Z,122.47
2022-11-29T09:38:00.168Z,106.93
2022-11-29T09:41:03.029Z,135.98
2022-11-29T09:43:39.119Z,120.68
2022-11-29T09:46:18.033Z,100.13
2022-11-29T09:49:12.535Z,162.37
2022-11-29T09:51:48.634Z,180.13
2022-11-29T09:54:31.738Z,199.18
2022-11-29T09:56:59.103Z,184.45
2022-11-29T09:59:40.982Z,137.30
2022-11-29T10:02:40.163Z,130.77
2022-11-29T10:05:13.787Z,131.60
2022-11-29T10:07:48.446Z,114.22
2022-11-29T10:10:30.430Z,85.77
2022-11-29T10:13:15.949Z,82.50
2022-11-29T10:15:45.949Z,68.00
2022-11-29T10:18:36.098Z,61.33
2022-11-29T10:21:19.138Z,48.40
2022-11-29T10:23:53.842Z,71.05
2022-11-29T10:26:22.891Z,90.90
2022-11-29T10:28:49.897Z,71.05
2022-11-29T10:31:37.161Z,72.28
2022-11-29T10:34:19.859Z,78.43
2022-11-29T10:37:02.817Z,76.63
2022-11-29T10:39:42.222Z,71.97
2022-11-29T10:42:39.829Z,67.65
2022-11-29T10:45:34.289Z,85.00
2022-11-29T10:48:10.911Z,95.65
2022-11-29T10:50:39.875Z,98.57
2022-11-29T10:53:28.283Z,94.25
2022-11-29T10:56:13.651Z,108.20
2022-11-29T10:58:56.258Z,101.30
2022-11-29T11:01:24.236Z,103.03
2022-11-29T11:03:53.155Z,127.70
2022-11-29T11:06:21.614Z,120.47
2022-11-29T11:08:52.743Z,82.33
2022-11-29T11:11:32.296Z,107.43
2022-11-29T11:14:19.257Z,102.20
2022-11-29T11:16:46.252Z,117.70
2022-11-29T11:19:32.811Z,111.03
2022-11-29T11:22:02.781Z,100.50
2022-11-29T11:24:36.472Z,82.47
2022-11-29T11:27:03.636Z,106.95
2022-11-29T11:29:53.136Z,92.20
2022-11-29T11:32:20.576Z,96.63
2022-11-29T11:34:56.195Z,138.77
2022-11-29T11:37:35.710Z,111.57
2022-11-29T11:40:28.901Z,89.32
2022-11-29T11:43:02.028Z,69.50
2022-11-29T11:45:34.427Z,73.20
2022-11-29T11:48:16.520Z,65.15
2022-11-29T11:50:53.343Z,69.88
2022-11-29T11:53:35.779Z,78.95
2022-11-29T11:56:12.307Z,75.95
2022-11-29T11:58:52.482Z,78.53
2022-11-29T12:01:39.106Z,84.38
2022-11-29T12:04:14.932Z,78.37
2022-11-29T12:06:58.937Z,75.63
2022-11-29T12:09:41.082Z,73.03
2022-11-29T12:12:28.363Z,69.90
2022-11-29T12:15:15.391Z,78.50
2022-11-29T12:17:57.714Z,80.50
2022-11-29T12:20:33.027Z,74.20
2022-11-29T12:23:07.080Z,67.32
2022-11-29T12:25:42.534Z,67.60
2022-11-29T12:28:17.184Z,60.85
2022-11-29T12:31:20.985Z,58.77
2022-11-29T12:34:09.884Z,57.47
2022-11-29T12:36:57.685Z,60.15
2022-11-29T12:39:28.105Z,64.38
2022-11-29T12:42:18.145Z,54.40
2022-11-29T12:44:49.015Z,64.72
2022-11-29T12:47:37.547Z,58.38
2022-11-29T12:50:34.787Z,56.85
2022-11-29T12:53:22.524Z,55.15
2022-11-29T12:56:13.738Z,61.93
2022-11-29T12:59:10.883Z,48.80
2022-11-29T13:01:58.714Z,50.57
2022-11-29T13:04:58.112Z,51.90
2022-11-29T13:07:48.430Z,53.72
2022-11-29T13:10:29.167Z,50.13
2022-11-29T13:13:03.656Z,49.13
2022-11-29T13:15:41.145Z,48.38
2022-11-29T13:18:42.254Z,51.47
2022-11-29T13:21:16.454Z,42.45
2022-11-29T13:24:10.073Z,46.85
2022-11-29T13:26:40.099Z,47.90
2022-11-29T13:29:10.354Z,49.30
2022-11-29T13:31:39.267Z,46.97
2022-11-29T13:34:09.317Z,47.03
2022-11-29T13:36:57.128Z,54.20
2022-11-29T13:39:38.952Z,45.20
2022-11-29T13:42:32.927Z,45.63
2022-11-29T13:45:24.498Z,37.88
2022-11-29T13:47:52.762Z,42.92
2022-11-29T13:50:37.481Z,39.20
2022-11-29T13:53:16.640Z,43.10
2022-11-29T13:55:50.026Z,36.47
2022-11-29T13:58:35.919Z,39.00
2022-11-29T14:01:13.512Z,44.83
2022-11-29T14:03:45.022Z,42.50
2022-11-29T14:06:21.741Z,41.80
2022-11-29T14:11:52.565Z,38.13
2022-11-29T14:14:53.987Z,38.53
2022-11-29T14:17:46.361Z,42.53
2022-11-29T14:20:22.499Z,47.92
2022-11-29T14:23:04.764Z,47.33
2022-11-29T14:25:51.707Z,40.90
2022-11-29T14:28:21.819Z,45.83
2022-11-29T14:30:54.338Z,41.63
2022-11-29T14:33:24.062Z,49.22
2022-11-29T14:36:17.712Z,43.08
2022-11-29T14:39:05.577Z,44.03
2022-11-29T14:41:51.456Z,40.15
2022-11-29T14:44:20.699Z,44.53
2022-11-29T14:46:59.328Z,53.20
2022-11-29T14:49:28.446Z,56.70
2022-11-29T14:52:15.753Z,49.47
2022-11-29T14:54:59.908Z,48.15
2022-11-29T14:57:57.810Z,48.50
2022-11-29T15:00:29.424Z,49.15
2022-11-29T15:03:13.240Z,61.53
2022-11-29T15:05:45.046Z,60.40
2022-11-29T15:08:16.917Z,52.42
2022-11-29T15:10:51.720Z,52.30
2022-11-29T15:13:47.140Z,48.87
2022-11-29T15:16:58.368Z,54.85
2022-11-29T15:19:52.678Z,49.90
2022-11-29T15:22:52.339Z,49.90
2022-11-29T15:25:26.355Z,56.53
2022-11-29T15:27:57.182Z,52.87
2022-11-29T15:30:34.679Z,59.75
2022-11-29T15:33:05.339Z,63.13
2022-11-29T15:35:34.887Z,48.15
2022-11-29T15:38:02.551Z,59.33
2022-11-29T15:40:35.200Z,60.63
2022-11-29T15:43:16.472Z,70.80
2022-11-29T15:45:49.084Z,68.60
2022-11-29T15:48:22.011Z,72.15
2022-11-29T15:51:00.441Z,64.97
2022-11-29T15:53:45.394Z,79.47
2022-11-29T15:56:25.424Z,82.38
2022-11-29T15:58:57.766Z,92.28
2022-11-29T16:01:24.751Z,101.68
2022-11-29T16:03:55.538Z,93.32
2022-11-29T16:06:42.725Z,95.35
2022-11-29T16:09:19.829Z,98.32
2022-11-29T16:11:48.290Z,111.40
2022-11-29T16:14:20.612Z,105.10
2022-11-29T16:16:50.151Z,115.63
2022-11-29T16:19:32.512Z,142.52
2022-11-29T16:22:09.649Z,157.77
2022-11-29T16:25:02.729Z,151.05
2022-11-29T16:27:33.387Z,158.85
2022-11-29T16:30:01.438Z,271.67
2022-11-29T16:32:29.873Z,370.95
2022-11-29T16:35:05.231Z,424.75
2022-11-29T16:37:39.067Z,505.25
2022-11-29T16:40:06.636Z,582.88
2022-11-29T16:42:33.971Z,533.35
2022-11-29T16:45:19.470Z,440.27
2022-11-29T16:47:52.520Z,547.45
2022-11-29T16:50:21.710Z,576.70
2022-11-29T16:52:53.436Z,618.57
2022-11-29T16:55:23.416Z,484.58
2022-11-29T16:57:52.084Z,661.95
2022-11-29T17:00:28.538Z,583.38
2022-11-29T17:02:55.492Z,684.30
2022-11-29T17:05:22.497Z,472.65
2022-11-29T17:07:50.353Z,642.45
2022-11-29T17:10:24.205Z,558.47
2022-11-29T17:12:51.273Z,579.63
2022-11-29T17:15:18.510Z,579.40
2022-11-29T17:17:45.529Z,684.20
2022-11-29T17:20:13.774Z,603.20
2022-11-29T17:22:41.465Z,556.35
2022-11-29T17:25:09.026Z,556.47
2022-11-29T17:27:36.449Z,512.28
2022-11-29T17:30:04.798Z,455.50
2022-11-29T17:32:34.718Z,340.80
2022-11-29T17:35:01.745Z,378.27
2022-11-29T17:37:30.315Z,365.48
2022-11-29T17:39:57.287Z,388.52
2022-11-29T17:42:24.210Z,411.65
2022-11-29T17:44:51.077Z,338.10
2022-11-29T17:47:17.950Z,344.20
2022-11-29T17:49:46.244Z,387.20
2022-11-29T17:52:13.340Z,327.15
2022-11-29T17:54:40.211Z,307.60
2022-11-29T17:57:07.333Z,247.82
2022-11-29T17:59:34.204Z,307.92
2022-11-29T18:02:02.122Z,307.50
2022-11-29T18:04:29.118Z,300.23
2022-11-29T18:06:56.007Z,371.15
2022-11-29T18:09:23.255Z,329.02
2022-11-29T18:11:50.706Z,266.38
2022-11-29T18:14:20.942Z,260.42
2022-11-29T18:16:48.405Z,278.58
2022-11-29T18:19:18.296Z,282.90
2022-11-29T18:21:45.850Z,233.15
2022-11-29T18:24:12.946Z,266.45
2022-11-29T18:26:40.432Z,307.55
2022-11-29T18:29:07.633Z,249.30
2022-11-29T18:31:43.302Z,262.80
2022-11-29T18:34:13.080Z,257.67
2022-11-29T18:36:45.022Z,276.30
2022-11-29T18:39:16.577Z,308.02
2022-11-29T18:41:45.287Z,268.55
2022-11-29T18:44:14.962Z,247.18
2022-11-29T18:46:43.835Z,284.33
2022-11-29T18:49:13.993Z,210.75
2022-11-29T18:51:43.001Z,244.45
2022-11-29T18:54:10.569Z,222.55
2022-11-29T18:56:38.217Z,217.15
2022-11-29T18:59:14.633Z,179.25
2022-11-29T19:01:42.572Z,173.40
2022-11-29T19:04:12.889Z,184.33
2022-11-29T19:06:40.745Z,171.10
2022-11-29T19:09:12.464Z,194.30
2022-11-29T19:11:39.904Z,188.65
2022-11-29T19:14:12.695Z,167.23
2022-11-29T19:16:45.759Z,187.48
2022-11-29T19:19:13.094Z,178.27
2022-11-29T19:21:41.323Z,136.13
2022-11-29T19:24:14.120Z,127.97
2022-11-29T19:26:44.470Z,138.45
2022-11-29T19:29:12.772Z,127.00
2022-11-29T19:31:39.648Z,136.55
2022-11-29T19:34:06.936Z,120.85
2022-11-29T19:36:34.007Z,147.20
2022-11-29T19:39:01.802Z,103.93
2022-11-29T19:41:33.790Z,126.95
2022-11-29T19:44:04.086Z,128.15
2022-11-29T19:46:34.033Z,146.98
2022-11-29T19:49:02.502Z,135.52
2022-11-29T19:51:30.521Z,119.32
2022-11-29T19:53:59.904Z,104.00
2022-11-29T19:56:27.975Z,99.03
2022-11-29T19:58:55.329Z,90.32
2022-11-29T20:01:25.349Z,95.00
2022-11-29T20:03:52.972Z,70.13
2022-11-29T20:06:19.983Z,46.80
2022-11-29T20:08:47.324Z,50.03
2022-11-29T20:11:17.543Z,43.47
2022-11-29T20:13:46.489Z,42.10
2022-11-29T20:16:15.917Z,49.43
2022-11-29T20:18:50.351Z,42.72
2022-11-29T20:21:27.147Z,46.83
2022-11-29T20:23:58.915Z,45.67
2022-11-29T20:26:27.059Z,53.20
2022-11-29T20:28:53.966Z,49.00
2022-11-29T20:31:23.008Z,49.35
2022-11-29T20:33:52.631Z,52.03
2022-11-29T20:36:58.146Z,40.53
2022-11-29T20:39:33.907Z,44.97
2022-11-29T20:42:28.751Z,47.00
2022-11-29T20:45:00.880Z,39.50
2022-11-29T20:47:33.779Z,33.60
2022-11-29T20:50:00.845Z,35.13
2022-11-29T20:52:38.629Z,34.35
2022-11-29T20:55:06.402Z,32.33
2022-11-29T20:57:33.842Z,30.93
2022-11-29T21:00:00.894Z,29.88
2022-11-29T21:02:28.205Z,29.00
2022-11-29T21:04:55.448Z,28.50
2022-11-29T21:07:22.840Z,32.05
2022-11-29T21:09:49.812Z,29.83
2022-11-29T21:12:17.361Z,30.67
2022-11-29T21:14:45.676Z,33.35
2022-11-29T21:17:13.239Z,30.85
2022-11-29T21:19:40.577Z,32.65
2022-11-29T21:22:29.293Z,28.80
2022-11-29T21:25:25.540Z,31.15
2022-11-29T21:27:54.903Z,27.33
2022-11-29T21:30:24.225Z,27.98
2022-11-29T21:32:52.279Z,30.67
2022-11-29T21:35:19.866Z,29.55
2022-11-29T21:37:47.087Z,27.15
2022-11-29T21:40:14.877Z,24.80
2022-11-29T21:42:41.919Z,30.70
2022-11-29T21:45:15.178Z,24.73
2022-11-29T21:47:44.433Z,27.83
2022-11-29T21:50:13.506Z,27.20
2022-11-29T21:52:41.267Z,28.58
2022-11-29T21:55:09.441Z,24.10
2022-11-29T21:57:36.540Z,24.70
2022-11-29T22:00:05.548Z,33.00
2022-11-29T22:02:33.331Z,25.77
2022-11-29T22:05:00.955Z,27.35
2022-11-29T22:07:28.359Z,28.42
2022-11-29T22:09:56.730Z,25.48
2022-11-29T22:12:34.204Z,27.40
2022-11-29T22:15:01.685Z,29.25
2022-11-29T22:17:28.554Z,25.75
2022-11-29T22:19:55.427Z,23.50
2022-11-29T22:22:22.305Z,25.10
2022-11-29T22:24:49.367Z,27.25
2022-11-29T22:27:18.421Z,25.92
2022-11-29T22:29:45.444Z,28.17
2022-11-29T22:32:13.859Z,30.05
2022-11-29T22:34:40.791Z,32.67
2022-11-29T22:37:07.645Z,26.30
2022-11-29T22:39:34.527Z,29.45
2022-11-29T22:42:01.467Z,27.63
2022-11-29T22:44:28.453Z,28.38
2022-11-29T22:46:55.323Z,30.48
2022-11-29T22:49:22.256Z,31.17
2022-11-29T22:51:49.232Z,34.13
2022-11-29T22:54:16.555Z,33.45
2022-11-29T22:56:45.052Z,27.83
2022-11-29T22:59:12.336Z,33.40
2022-11-29T23:01:40.673Z,30.75
2022-11-29T23:04:10.306Z,32.17
2022-11-29T23:06:46.325Z,34.30
2022-11-29T23:09:21.266Z,25.77
2022-11-29T23:11:53.148Z,30.05
2022-11-29T23:14:20.709Z,30.25
2022-11-29T23:16:47.591Z,27.80
2022-11-29T23:19:16.324Z,30.92
2022-11-29T23:21:45.569Z,25.27
2022-11-29T23:24:13.390Z,28.48
2022-11-29T23:26:46.576Z,25.52
2022-11-29T23:29:16.606Z,27.35
2022-11-29T23:31:43.638Z,30.85
2022-11-29T23:34:11.120Z,32.08
2022-11-29T23:36:38.298Z,33.65
2022-11-29T23:39:06.605Z,36.70
2022-11-29T23:41:35.721Z,28.48
2022-11-29T23:44:06.831Z,32.72
2022-11-29T23:46:35.532Z,32.42
2022-11-29T23:49:02.530Z,31.55
2022-11-29T23:51:29.653Z,33.10
2022-11-29T23:53:56.555Z,30.35
2022-11-29T23:56:23.648Z,30.38
2022-11-29T23:58:50.662Z,30.52
